sensor_id;sensor_type;location;lat;lon;timestamp;P1;durP1;ratioP1;P2;durP2;ratioP2
80987;SDS011;70452;39.386;-3.210;2023-09-08T00:02:23;8.25;;;2.63;;
80987;SDS011;70452;39.386;-3.210;2023-09-08T00:04:50;9.55;;;2.88;;
80987;SDS011;70452;39.386;-3.210;2023-09-08T00:07:15;10.13;;;2.95;;
80987;SDS011;70452;39.386;-3.210;2023-09-08T00:09:41;8.93;;;2.45;;
80987;SDS011;70452;39.386;-3.210;2023-09-08T00:12:06;7.60;;;2.53;;
80987;SDS011;70452;39.386;-3.210;2023-09-08T00:14:32;9.10;;;2.70;;
80987;SDS011;70452;39.386;-3.210;2023-09-08T00:16:57;7.00;;;2.60;;
80987;SDS011;70452;39.386;-3.210;2023-09-08T00:19:23;7.03;;;2.63;;
80987;SDS011;70452;39.386;-3.210;2023-09-08T00:21:49;9.30;;;3.78;;
80987;SDS011;70452;39.386;-3.210;2023-09-08T00:24:15;10.05;;;2.88;;
80987;SDS011;70452;39.386;-3.210;2023-09-08T00:26:41;11.35;;;3.25;;
80987;SDS011;70452;39.386;-3.210;2023-09-08T00:29:07;6.80;;;2.42;;
80987;SDS011;70452;39.386;-3.210;2023-09-08T00:31:33;10.93;;;2.63;;
80987;SDS011;70452;39.386;-3.210;2023-09-08T00:33:58;10.15;;;3.53;;
80987;SDS011;70452;39.386;-3.210;2023-09-08T00:36:24;8.38;;;2.55;;
80987;SDS011;70452;39.386;-3.210;2023-09-08T00:38:51;9.00;;;2.42;;
80987;SDS011;70452;39.386;-3.210;2023-09-08T00:41:16;9.30;;;2.65;;
80987;SDS011;70452;39.386;-3.210;2023-09-08T00:43:42;9.85;;;3.67;;
80987;SDS011;70452;39.386;-3.210;2023-09-08T00:46:07;6.78;;;2.63;;
80987;SDS011;70452;39.386;-3.210;2023-09-08T00:48:34;8.75;;;2.78;;
80987;SDS011;70452;39.386;-3.210;2023-09-08T00:51:00;9.82;;;3.55;;
80987;SDS011;70452;39.386;-3.210;2023-09-08T00:53:26;7.10;;;2.80;;
80987;SDS011;70452;39.386;-3.210;2023-09-08T00:55:52;9.27;;;4.07;;
80987;SDS011;70452;39.386;-3.210;2023-09-08T00:58:19;8.05;;;3.10;;
80987;SDS011;70452;39.386;-3.210;2023-09-08T01:00:44;8.80;;;3.17;;
80987;SDS011;70452;39.386;-3.210;2023-09-08T01:03:13;9.80;;;3.30;;
80987;SDS011;70452;39.386;-3.210;2023-09-08T01:05:39;8.00;;;3.40;;
80987;SDS011;70452;39.386;-3.210;2023-09-08T01:08:05;8.07;;;3.60;;
80987;SDS011;70452;39.386;-3.210;2023-09-08T01:10:31;7.43;;;3.25;;
80987;SDS011;70452;39.386;-3.210;2023-09-08T01:12:58;6.57;;;2.83;;
80987;SDS011;70452;39.386;-3.210;2023-09-08T01:15:24;7.72;;;2.83;;
80987;SDS011;70452;39.386;-3.210;2023-09-08T01:17:49;8.10;;;2.90;;
80987;SDS011;70452;39.386;-3.210;2023-09-08T01:20:35;9.48;;;3.25;;
80987;SDS011;70452;39.386;-3.210;2023-09-08T01:23:22;8.90;;;2.90;;
80987;SDS011;70452;39.386;-3.210;2023-09-08T01:25:59;8.43;;;3.10;;
80987;SDS011;70452;39.386;-3.210;2023-09-08T01:28:27;8.00;;;3.25;;
80987;SDS011;70452;39.386;-3.210;2023-09-08T01:30:54;7.30;;;3.08;;
80987;SDS011;70452;39.386;-3.210;2023-09-08T01:33:21;10.20;;;3.90;;
80987;SDS011;70452;39.386;-3.210;2023-09-08T01:35:47;8.00;;;2.97;;
80987;SDS011;70452;39.386;-3.210;2023-09-08T01:38:13;11.35;;;3.50;;
80987;SDS011;70452;39.386;-3.210;2023-09-08T01:40:38;7.63;;;3.42;;
80987;SDS011;70452;39.386;-3.210;2023-09-08T01:43:06;11.02;;;3.83;;
80987;SDS011;70452;39.386;-3.210;2023-09-08T01:45:32;10.52;;;3.50;;
80987;SDS011;70452;39.386;-3.210;2023-09-08T01:47:57;10.05;;;3.20;;
80987;SDS011;70452;39.386;-3.210;2023-09-08T01:50:23;9.18;;;3.45;;
80987;SDS011;70452;39.386;-3.210;2023-09-08T01:52:50;11.15;;;2.53;;
80987;SDS011;70452;39.386;-3.210;2023-09-08T01:55:16;11.00;;;3.28;;
80987;SDS011;70452;39.386;-3.210;2023-09-08T01:57:42;9.20;;;2.92;;
80987;SDS011;70452;39.386;-3.210;2023-09-08T02:00:08;8.25;;;3.10;;
80987;SDS011;70452;39.386;-3.210;2023-09-08T02:02:35;9.35;;;3.42;;
80987;SDS011;70452;39.386;-3.210;2023-09-08T02:05:00;8.32;;;3.45;;
80987;SDS011;70452;39.386;-3.210;2023-09-08T02:07:25;9.00;;;3.30;;
80987;SDS011;70452;39.386;-3.210;2023-09-08T02:09:52;7.90;;;3.05;;
80987;SDS011;70452;39.386;-3.210;2023-09-08T02:12:18;7.47;;;3.08;;
80987;SDS011;70452;39.386;-3.210;2023-09-08T02:14:43;11.02;;;3.53;;
80987;SDS011;70452;39.386;-3.210;2023-09-08T02:17:09;9.57;;;4.28;;
80987;SDS011;70452;39.386;-3.210;2023-09-08T02:19:34;8.60;;;3.28;;
80987;SDS011;70452;39.386;-3.210;2023-09-08T02:22:00;10.38;;;3.08;;
80987;SDS011;70452;39.386;-3.210;2023-09-08T02:24:25;10.35;;;3.28;;
80987;SDS011;70452;39.386;-3.210;2023-09-08T02:26:53;12.63;;;3.17;;
80987;SDS011;70452;39.386;-3.210;2023-09-08T02:29:18;11.20;;;3.15;;
80987;SDS011;70452;39.386;-3.210;2023-09-08T02:31:44;8.27;;;3.30;;
80987;SDS011;70452;39.386;-3.210;2023-09-08T02:34:11;10.68;;;3.92;;
80987;SDS011;70452;39.386;-3.210;2023-09-08T02:36:37;9.75;;;3.05;;
80987;SDS011;70452;39.386;-3.210;2023-09-08T02:39:03;15.23;;;4.20;;
80987;SDS011;70452;39.386;-3.210;2023-09-08T02:41:32;9.40;;;3.60;;
80987;SDS011;70452;39.386;-3.210;2023-09-08T02:43:58;10.63;;;3.40;;
80987;SDS011;70452;39.386;-3.210;2023-09-08T02:46:23;16.02;;;4.53;;
80987;SDS011;70452;39.386;-3.210;2023-09-08T02:48:49;12.38;;;4.53;;
80987;SDS011;70452;39.386;-3.210;2023-09-08T02:51:15;9.30;;;3.60;;
80987;SDS011;70452;39.386;-3.210;2023-09-08T02:53:41;14.00;;;3.83;;
80987;SDS011;70452;39.386;-3.210;2023-09-08T02:56:06;10.18;;;3.47;;
80987;SDS011;70452;39.386;-3.210;2023-09-08T02:58:32;7.88;;;3.97;;
80987;SDS011;70452;39.386;-3.210;2023-09-08T03:01:10;11.73;;;4.40;;
80987;SDS011;70452;39.386;-3.210;2023-09-08T03:03:38;9.27;;;3.40;;
80987;SDS011;70452;39.386;-3.210;2023-09-08T03:06:04;12.65;;;4.75;;
80987;SDS011;70452;39.386;-3.210;2023-09-08T03:08:29;13.15;;;4.30;;
80987;SDS011;70452;39.386;-3.210;2023-09-08T03:10:56;12.73;;;4.70;;
80987;SDS011;70452;39.386;-3.210;2023-09-08T03:13:22;11.13;;;4.30;;
80987;SDS011;70452;39.386;-3.210;2023-09-08T03:15:49;10.05;;;4.55;;
80987;SDS011;70452;39.386;-3.210;2023-09-08T03:18:14;9.10;;;3.65;;
80987;SDS011;70452;39.386;-3.210;2023-09-08T03:20:40;9.40;;;4.85;;
80987;SDS011;70452;39.386;-3.210;2023-09-08T03:23:05;11.20;;;4.38;;
80987;SDS011;70452;39.386;-3.210;2023-09-08T03:25:31;9.82;;;4.45;;
80987;SDS011;70452;39.386;-3.210;2023-09-08T03:27:56;8.57;;;4.43;;
80987;SDS011;70452;39.386;-3.210;2023-09-08T03:30:22;13.75;;;4.85;;
80987;SDS011;70452;39.386;-3.210;2023-09-08T03:32:47;11.18;;;5.15;;
80987;SDS011;70452;39.386;-3.210;2023-09-08T03:35:13;12.98;;;5.18;;
80987;SDS011;70452;39.386;-3.210;2023-09-08T03:37:40;10.77;;;4.18;;
80987;SDS011;70452;39.386;-3.210;2023-09-08T03:40:05;10.88;;;4.07;;
80987;SDS011;70452;39.386;-3.210;2023-09-08T03:42:32;11.23;;;4.93;;
80987;SDS011;70452;39.386;-3.210;2023-09-08T03:44:58;11.80;;;4.35;;
80987;SDS011;70452;39.386;-3.210;2023-09-08T03:47:24;10.70;;;3.90;;
80987;SDS011;70452;39.386;-3.210;2023-09-08T03:49:49;9.20;;;4.35;;
80987;SDS011;70452;39.386;-3.210;2023-09-08T03:52:15;7.85;;;4.50;;
80987;SDS011;70452;39.386;-3.210;2023-09-08T03:54:40;9.02;;;4.38;;
80987;SDS011;70452;39.386;-3.210;2023-09-08T03:57:06;9.82;;;4.20;;
80987;SDS011;70452;39.386;-3.210;2023-09-08T03:59:32;10.32;;;4.75;;
80987;SDS011;70452;39.386;-3.210;2023-09-08T04:01:57;8.88;;;4.65;;
80987;SDS011;70452;39.386;-3.210;2023-09-08T04:04:23;12.93;;;4.72;;
80987;SDS011;70452;39.386;-3.210;2023-09-08T04:06:48;11.23;;;4.55;;
80987;SDS011;70452;39.386;-3.210;2023-09-08T04:09:14;9.85;;;5.00;;
80987;SDS011;70452;39.386;-3.210;2023-09-08T04:11:39;14.65;;;5.15;;
80987;SDS011;70452;39.386;-3.210;2023-09-08T04:14:06;13.05;;;5.03;;
80987;SDS011;70452;39.386;-3.210;2023-09-08T04:16:31;10.95;;;5.43;;
80987;SDS011;70452;39.386;-3.210;2023-09-08T04:18:57;10.50;;;4.72;;
80987;SDS011;70452;39.386;-3.210;2023-09-08T04:21:22;8.48;;;4.65;;
80987;SDS011;70452;39.386;-3.210;2023-09-08T04:23:48;12.68;;;5.47;;
80987;SDS011;70452;39.386;-3.210;2023-09-08T04:26:13;13.88;;;5.82;;
80987;SDS011;70452;39.386;-3.210;2023-09-08T04:28:39;11.48;;;5.20;;
80987;SDS011;70452;39.386;-3.210;2023-09-08T04:31:04;9.30;;;4.45;;
80987;SDS011;70452;39.386;-3.210;2023-09-08T04:33:30;11.05;;;5.53;;
80987;SDS011;70452;39.386;-3.210;2023-09-08T04:35:55;11.00;;;5.20;;
80987;SDS011;70452;39.386;-3.210;2023-09-08T04:38:21;11.50;;;5.22;;
80987;SDS011;70452;39.386;-3.210;2023-09-08T04:40:47;9.68;;;5.38;;
80987;SDS011;70452;39.386;-3.210;2023-09-08T04:43:13;11.65;;;5.65;;
80987;SDS011;70452;39.386;-3.210;2023-09-08T04:45:39;11.48;;;5.72;;
80987;SDS011;70452;39.386;-3.210;2023-09-08T04:48:05;11.35;;;4.90;;
80987;SDS011;70452;39.386;-3.210;2023-09-08T04:50:31;11.35;;;6.03;;
80987;SDS011;70452;39.386;-3.210;2023-09-08T04:52:56;12.10;;;5.57;;
80987;SDS011;70452;39.386;-3.210;2023-09-08T04:55:22;10.85;;;5.07;;
80987;SDS011;70452;39.386;-3.210;2023-09-08T04:57:48;11.05;;;5.60;;
80987;SDS011;70452;39.386;-3.210;2023-09-08T05:00:14;11.32;;;5.22;;
80987;SDS011;70452;39.386;-3.210;2023-09-08T05:02:39;10.60;;;5.40;;
80987;SDS011;70452;39.386;-3.210;2023-09-08T05:05:05;12.65;;;4.88;;
80987;SDS011;70452;39.386;-3.210;2023-09-08T05:07:31;10.98;;;5.32;;
80987;SDS011;70452;39.386;-3.210;2023-09-08T05:09:56;12.98;;;5.50;;
80987;SDS011;70452;39.386;-3.210;2023-09-08T05:12:22;10.90;;;5.18;;
80987;SDS011;70452;39.386;-3.210;2023-09-08T05:14:47;10.95;;;5.28;;
80987;SDS011;70452;39.386;-3.210;2023-09-08T05:17:13;13.10;;;5.47;;
80987;SDS011;70452;39.386;-3.210;2023-09-08T05:19:39;11.48;;;5.88;;
80987;SDS011;70452;39.386;-3.210;2023-09-08T05:22:05;10.05;;;5.07;;
80987;SDS011;70452;39.386;-3.210;2023-09-08T05:24:32;12.15;;;5.22;;
80987;SDS011;70452;39.386;-3.210;2023-09-08T05:26:57;11.40;;;5.15;;
80987;SDS011;70452;39.386;-3.210;2023-09-08T05:29:23;10.43;;;5.30;;
80987;SDS011;70452;39.386;-3.210;2023-09-08T05:31:49;9.57;;;5.55;;
80987;SDS011;70452;39.386;-3.210;2023-09-08T05:34:14;10.73;;;4.95;;
80987;SDS011;70452;39.386;-3.210;2023-09-08T05:36:40;12.32;;;5.03;;
80987;SDS011;70452;39.386;-3.210;2023-09-08T05:39:07;12.68;;;5.32;;
80987;SDS011;70452;39.386;-3.210;2023-09-08T05:41:33;9.80;;;5.07;;
80987;SDS011;70452;39.386;-3.210;2023-09-08T05:43:58;11.80;;;5.25;;
80987;SDS011;70452;39.386;-3.210;2023-09-08T05:46:24;14.77;;;5.53;;
80987;SDS011;70452;39.386;-3.210;2023-09-08T05:48:50;11.45;;;5.05;;
80987;SDS011;70452;39.386;-3.210;2023-09-08T05:51:15;10.98;;;5.60;;
80987;SDS011;70452;39.386;-3.210;2023-09-08T05:53:41;13.45;;;5.78;;
80987;SDS011;70452;39.386;-3.210;2023-09-08T05:56:07;11.77;;;6.07;;
80987;SDS011;70452;39.386;-3.210;2023-09-08T05:58:32;14.23;;;6.65;;
80987;SDS011;70452;39.386;-3.210;2023-09-08T06:01:00;13.77;;;5.82;;
80987;SDS011;70452;39.386;-3.210;2023-09-08T06:03:27;11.95;;;5.72;;
80987;SDS011;70452;39.386;-3.210;2023-09-08T06:05:52;12.25;;;5.75;;
80987;SDS011;70452;39.386;-3.210;2023-09-08T06:08:18;9.90;;;4.63;;
80987;SDS011;70452;39.386;-3.210;2023-09-08T06:10:43;10.05;;;4.88;;
80987;SDS011;70452;39.386;-3.210;2023-09-08T06:13:12;10.57;;;4.63;;
80987;SDS011;70452;39.386;-3.210;2023-09-08T06:15:37;12.60;;;5.38;;
80987;SDS011;70452;39.386;-3.210;2023-09-08T06:18:03;11.05;;;5.57;;
80987;SDS011;70452;39.386;-3.210;2023-09-08T06:20:28;11.20;;;5.32;;
80987;SDS011;70452;39.386;-3.210;2023-09-08T06:22:59;12.57;;;5.95;;
80987;SDS011;70452;39.386;-3.210;2023-09-08T06:25:24;11.65;;;5.28;;
80987;SDS011;70452;39.386;-3.210;2023-09-08T06:27:51;10.45;;;5.47;;
80987;SDS011;70452;39.386;-3.210;2023-09-08T06:30:17;9.25;;;4.93;;
80987;SDS011;70452;39.386;-3.210;2023-09-08T06:32:43;10.50;;;5.10;;
80987;SDS011;70452;39.386;-3.210;2023-09-08T06:35:09;10.88;;;6.75;;
80987;SDS011;70452;39.386;-3.210;2023-09-08T06:37:38;10.07;;;5.50;;
80987;SDS011;70452;39.386;-3.210;2023-09-08T06:40:04;10.00;;;4.40;;
80987;SDS011;70452;39.386;-3.210;2023-09-08T06:42:31;10.93;;;4.75;;
80987;SDS011;70452;39.386;-3.210;2023-09-08T06:44:57;10.50;;;4.43;;
80987;SDS011;70452;39.386;-3.210;2023-09-08T06:47:23;10.85;;;3.63;;
80987;SDS011;70452;39.386;-3.210;2023-09-08T06:49:49;11.75;;;4.30;;
80987;SDS011;70452;39.386;-3.210;2023-09-08T06:52:16;11.98;;;4.22;;
80987;SDS011;70452;39.386;-3.210;2023-09-08T06:54:42;11.60;;;4.28;;
80987;SDS011;70452;39.386;-3.210;2023-09-08T06:57:07;8.32;;;3.95;;
80987;SDS011;70452;39.386;-3.210;2023-09-08T06:59:33;8.77;;;4.20;;
80987;SDS011;70452;39.386;-3.210;2023-09-08T07:01:58;13.95;;;5.38;;
80987;SDS011;70452;39.386;-3.210;2023-09-08T07:04:25;14.55;;;4.07;;
80987;SDS011;70452;39.386;-3.210;2023-09-08T07:06:52;10.27;;;4.75;;
80987;SDS011;70452;39.386;-3.210;2023-09-08T07:09:20;9.45;;;4.03;;
80987;SDS011;70452;39.386;-3.210;2023-09-08T07:11:54;9.25;;;4.60;;
80987;SDS011;70452;39.386;-3.210;2023-09-08T07:14:19;11.52;;;4.40;;
80987;SDS011;70452;39.386;-3.210;2023-09-08T07:16:45;9.50;;;4.13;;
80987;SDS011;70452;39.386;-3.210;2023-09-08T07:19:13;10.40;;;3.83;;
80987;SDS011;70452;39.386;-3.210;2023-09-08T07:21:40;10.35;;;4.32;;
80987;SDS011;70452;39.386;-3.210;2023-09-08T07:24:05;8.85;;;3.90;;
80987;SDS011;70452;39.386;-3.210;2023-09-08T07:26:31;9.88;;;4.22;;
80987;SDS011;70452;39.386;-3.210;2023-09-08T07:29:01;10.15;;;4.47;;
80987;SDS011;70452;39.386;-3.210;2023-09-08T07:31:26;15.63;;;5.68;;
80987;SDS011;70452;39.386;-3.210;2023-09-08T07:33:52;11.35;;;4.45;;
80987;SDS011;70452;39.386;-3.210;2023-09-08T07:36:17;10.02;;;4.35;;
80987;SDS011;70452;39.386;-3.210;2023-09-08T07:38:43;12.70;;;4.22;;
80987;SDS011;70452;39.386;-3.210;2023-09-08T07:41:08;11.40;;;5.53;;
80987;SDS011;70452;39.386;-3.210;2023-09-08T07:43:34;11.88;;;3.80;;
80987;SDS011;70452;39.386;-3.210;2023-09-08T07:46:03;12.88;;;4.47;;
80987;SDS011;70452;39.386;-3.210;2023-09-08T07:48:29;11.32;;;3.60;;
80987;SDS011;70452;39.386;-3.210;2023-09-08T07:50:54;9.57;;;4.05;;
80987;SDS011;70452;39.386;-3.210;2023-09-08T07:53:20;12.93;;;4.15;;
80987;SDS011;70452;39.386;-3.210;2023-09-08T07:55:50;11.80;;;4.65;;
80987;SDS011;70452;39.386;-3.210;2023-09-08T08:00:41;13.25;;;4.50;;
80987;SDS011;70452;39.386;-3.210;2023-09-08T08:03:07;10.90;;;4.15;;
80987;SDS011;70452;39.386;-3.210;2023-09-08T08:05:33;13.60;;;3.85;;
80987;SDS011;70452;39.386;-3.210;2023-09-08T08:07:59;12.27;;;4.18;;
80987;SDS011;70452;39.386;-3.210;2023-09-08T08:10:24;12.07;;;4.05;;
80987;SDS011;70452;39.386;-3.210;2023-09-08T08:12:50;11.48;;;3.70;;
80987;SDS011;70452;39.386;-3.210;2023-09-08T08:15:16;15.90;;;5.13;;
80987;SDS011;70452;39.386;-3.210;2023-09-08T08:17:44;12.18;;;6.20;;
80987;SDS011;70452;39.386;-3.210;2023-09-08T08:20:10;12.23;;;3.60;;
80987;SDS011;70452;39.386;-3.210;2023-09-08T08:22:42;9.93;;;3.30;;
80987;SDS011;70452;39.386;-3.210;2023-09-08T08:25:08;9.80;;;3.63;;
80987;SDS011;70452;39.386;-3.210;2023-09-08T08:27:34;14.70;;;3.20;;
80987;SDS011;70452;39.386;-3.210;2023-09-08T08:29:59;12.30;;;3.17;;
80987;SDS011;70452;39.386;-3.210;2023-09-08T08:32:28;16.73;;;5.13;;
80987;SDS011;70452;39.386;-3.210;2023-09-08T08:34:54;8.75;;;2.95;;
80987;SDS011;70452;39.386;-3.210;2023-09-08T08:37:20;12.60;;;3.35;;
80987;SDS011;70452;39.386;-3.210;2023-09-08T08:39:45;11.55;;;2.70;;
80987;SDS011;70452;39.386;-3.210;2023-09-08T08:42:11;11.13;;;2.60;;
80987;SDS011;70452;39.386;-3.210;2023-09-08T08:44:39;12.20;;;3.30;;
80987;SDS011;70452;39.386;-3.210;2023-09-08T08:47:09;11.10;;;3.05;;
80987;SDS011;70452;39.386;-3.210;2023-09-08T08:52:02;14.65;;;3.05;;
80987;SDS011;70452;39.386;-3.210;2023-09-08T08:54:33;12.05;;;3.03;;
80987;SDS011;70452;39.386;-3.210;2023-09-08T08:57:01;14.60;;;3.15;;
80987;SDS011;70452;39.386;-3.210;2023-09-08T08:59:27;9.55;;;2.75;;
80987;SDS011;70452;39.386;-3.210;2023-09-08T09:01:55;8.95;;;2.70;;
80987;SDS011;70452;39.386;-3.210;2023-09-08T09:04:22;14.48;;;2.63;;
80987;SDS011;70452;39.386;-3.210;2023-09-08T09:06:49;16.55;;;3.75;;
80987;SDS011;70452;39.386;-3.210;2023-09-08T09:09:15;13.68;;;3.25;;
80987;SDS011;70452;39.386;-3.210;2023-09-08T09:11:44;10.43;;;2.60;;
80987;SDS011;70452;39.386;-3.210;2023-09-08T09:14:10;12.57;;;2.70;;
80987;SDS011;70452;39.386;-3.210;2023-09-08T09:16:39;13.07;;;3.45;;
80987;SDS011;70452;39.386;-3.210;2023-09-08T09:19:06;15.77;;;3.63;;
80987;SDS011;70452;39.386;-3.210;2023-09-08T09:21:44;13.60;;;2.85;;
80987;SDS011;70452;39.386;-3.210;2023-09-08T09:24:28;16.75;;;2.88;;
80987;SDS011;70452;39.386;-3.210;2023-09-08T09:27:03;12.23;;;2.22;;
80987;SDS011;70452;39.386;-3.210;2023-09-08T09:29:33;15.45;;;2.92;;
80987;SDS011;70452;39.386;-3.210;2023-09-08T09:32:06;13.35;;;4.05;;
80987;SDS011;70452;39.386;-3.210;2023-09-08T09:34:35;20.80;;;4.28;;
80987;SDS011;70452;39.386;-3.210;2023-09-08T09:37:01;11.40;;;2.33;;
80987;SDS011;70452;39.386;-3.210;2023-09-08T09:39:26;13.82;;;2.95;;
80987;SDS011;70452;39.386;-3.210;2023-09-08T09:41:55;13.73;;;3.08;;
80987;SDS011;70452;39.386;-3.210;2023-09-08T09:44:23;12.23;;;2.58;;
80987;SDS011;70452;39.386;-3.210;2023-09-08T09:46:53;13.18;;;3.58;;
80987;SDS011;70452;39.386;-3.210;2023-09-08T09:49:19;15.27;;;3.65;;
80987;SDS011;70452;39.386;-3.210;2023-09-08T09:51:45;15.02;;;3.75;;
80987;SDS011;70452;39.386;-3.210;2023-09-08T09:54:17;15.82;;;5.78;;
80987;SDS011;70452;39.386;-3.210;2023-09-08T09:56:43;14.20;;;3.95;;
80987;SDS011;70452;39.386;-3.210;2023-09-08T09:59:10;12.88;;;3.50;;
80987;SDS011;70452;39.386;-3.210;2023-09-08T10:01:41;13.55;;;3.25;;
80987;SDS011;70452;39.386;-3.210;2023-09-08T10:04:07;12.52;;;2.35;;
80987;SDS011;70452;39.386;-3.210;2023-09-08T10:06:34;13.15;;;2.50;;
80987;SDS011;70452;39.386;-3.210;2023-09-08T10:09:02;13.30;;;3.53;;
80987;SDS011;70452;39.386;-3.210;2023-09-08T10:11:34;11.02;;;2.00;;
80987;SDS011;70452;39.386;-3.210;2023-09-08T10:14:03;17.58;;;3.85;;
80987;SDS011;70452;39.386;-3.210;2023-09-08T10:16:34;16.85;;;3.88;;
80987;SDS011;70452;39.386;-3.210;2023-09-08T10:19:02;15.10;;;5.63;;
80987;SDS011;70452;39.386;-3.210;2023-09-08T10:21:32;22.00;;;6.65;;
80987;SDS011;70452;39.386;-3.210;2023-09-08T10:24:05;16.02;;;5.43;;
80987;SDS011;70452;39.386;-3.210;2023-09-08T10:26:51;12.93;;;3.28;;
80987;SDS011;70452;39.386;-3.210;2023-09-08T10:29:23;13.20;;;3.50;;
80987;SDS011;70452;39.386;-3.210;2023-09-08T10:31:49;15.73;;;3.88;;
80987;SDS011;70452;39.386;-3.210;2023-09-08T10:34:15;13.95;;;2.78;;
80987;SDS011;70452;39.386;-3.210;2023-09-08T10:36:42;16.65;;;2.75;;
80987;SDS011;70452;39.386;-3.210;2023-09-08T10:42:00;23.08;;;7.20;;
80987;SDS011;70452;39.386;-3.210;2023-09-08T10:44:55;12.27;;;3.25;;
80987;SDS011;70452;39.386;-3.210;2023-09-08T10:47:22;14.68;;;2.30;;
80987;SDS011;70452;39.386;-3.210;2023-09-08T10:49:48;17.77;;;2.13;;
80987;SDS011;70452;39.386;-3.210;2023-09-08T10:52:18;15.70;;;4.43;;
80987;SDS011;70452;39.386;-3.210;2023-09-08T10:54:50;14.80;;;2.88;;
80987;SDS011;70452;39.386;-3.210;2023-09-08T10:57:20;12.13;;;2.05;;
80987;SDS011;70452;39.386;-3.210;2023-09-08T10:59:57;24.02;;;3.58;;
80987;SDS011;70452;39.386;-3.210;2023-09-08T11:02:32;14.82;;;3.15;;
80987;SDS011;70452;39.386;-3.210;2023-09-08T11:04:58;11.45;;;2.72;;
80987;SDS011;70452;39.386;-3.210;2023-09-08T11:07:24;15.45;;;3.75;;
80987;SDS011;70452;39.386;-3.210;2023-09-08T11:09:50;14.77;;;2.55;;
80987;SDS011;70452;39.386;-3.210;2023-09-08T11:12:16;11.27;;;2.08;;
80987;SDS011;70452;39.386;-3.210;2023-09-08T11:14:43;12.52;;;3.13;;
80987;SDS011;70452;39.386;-3.210;2023-09-08T11:17:08;12.88;;;2.15;;
80987;SDS011;70452;39.386;-3.210;2023-09-08T11:19:47;13.68;;;2.17;;
80987;SDS011;70452;39.386;-3.210;2023-09-08T11:22:14;12.45;;;2.70;;
80987;SDS011;70452;39.386;-3.210;2023-09-08T11:24:44;12.18;;;3.40;;
80987;SDS011;70452;39.386;-3.210;2023-09-08T11:27:12;13.90;;;2.72;;
80987;SDS011;70452;39.386;-3.210;2023-09-08T11:29:38;16.95;;;3.65;;
80987;SDS011;70452;39.386;-3.210;2023-09-08T11:32:07;14.30;;;4.00;;
80987;SDS011;70452;39.386;-3.210;2023-09-08T11:34:34;15.25;;;3.28;;
80987;SDS011;70452;39.386;-3.210;2023-09-08T11:37:05;15.93;;;4.15;;
80987;SDS011;70452;39.386;-3.210;2023-09-08T11:39:35;12.07;;;2.42;;
80987;SDS011;70452;39.386;-3.210;2023-09-08T11:42:11;11.02;;;1.95;;
80987;SDS011;70452;39.386;-3.210;2023-09-08T11:44:39;10.75;;;2.80;;
80987;SDS011;70452;39.386;-3.210;2023-09-08T11:47:08;9.70;;;2.33;;
80987;SDS011;70452;39.386;-3.210;2023-09-08T11:52:02;13.30;;;2.38;;
80987;SDS011;70452;39.386;-3.210;2023-09-08T11:54:29;10.32;;;2.30;;
80987;SDS011;70452;39.386;-3.210;2023-09-08T11:56:57;15.38;;;3.13;;
80987;SDS011;70452;39.386;-3.210;2023-09-08T11:59:25;9.85;;;2.45;;
80987;SDS011;70452;39.386;-3.210;2023-09-08T12:01:52;17.25;;;3.08;;
80987;SDS011;70452;39.386;-3.210;2023-09-08T12:04:18;15.45;;;2.50;;
80987;SDS011;70452;39.386;-3.210;2023-09-08T12:06:48;14.23;;;3.67;;
80987;SDS011;70452;39.386;-3.210;2023-09-08T12:09:14;15.25;;;3.35;;
80987;SDS011;70452;39.386;-3.210;2023-09-08T12:11:41;14.80;;;3.17;;
80987;SDS011;70452;39.386;-3.210;2023-09-08T12:14:08;11.52;;;2.35;;
80987;SDS011;70452;39.386;-3.210;2023-09-08T12:16:36;9.63;;;2.38;;
80987;SDS011;70452;39.386;-3.210;2023-09-08T12:19:01;14.73;;;2.70;;
80987;SDS011;70452;39.386;-3.210;2023-09-08T12:21:27;13.00;;;2.70;;
80987;SDS011;70452;39.386;-3.210;2023-09-08T12:23:53;15.75;;;5.13;;
80987;SDS011;70452;39.386;-3.210;2023-09-08T12:26:22;14.70;;;3.20;;
80987;SDS011;70452;39.386;-3.210;2023-09-08T12:28:50;15.45;;;3.00;;
80987;SDS011;70452;39.386;-3.210;2023-09-08T12:31:16;14.57;;;3.20;;
80987;SDS011;70452;39.386;-3.210;2023-09-08T12:33:43;11.35;;;2.10;;
80987;SDS011;70452;39.386;-3.210;2023-09-08T12:36:16;12.18;;;4.30;;
80987;SDS011;70452;39.386;-3.210;2023-09-08T12:38:52;14.90;;;3.60;;
80987;SDS011;70452;39.386;-3.210;2023-09-08T12:41:18;11.25;;;3.80;;
80987;SDS011;70452;39.386;-3.210;2023-09-08T12:43:47;15.18;;;2.65;;
80987;SDS011;70452;39.386;-3.210;2023-09-08T12:46:12;15.43;;;3.10;;
80987;SDS011;70452;39.386;-3.210;2023-09-08T12:48:38;10.63;;;2.33;;
80987;SDS011;70452;39.386;-3.210;2023-09-08T12:51:03;16.55;;;3.45;;
80987;SDS011;70452;39.386;-3.210;2023-09-08T12:53:32;13.70;;;3.22;;
80987;SDS011;70452;39.386;-3.210;2023-09-08T12:56:00;11.77;;;2.47;;
80987;SDS011;70452;39.386;-3.210;2023-09-08T12:58:25;14.02;;;2.42;;
80987;SDS011;70452;39.386;-3.210;2023-09-08T13:00:52;14.38;;;3.17;;
80987;SDS011;70452;39.386;-3.210;2023-09-08T13:03:18;12.48;;;2.50;;
80987;SDS011;70452;39.386;-3.210;2023-09-08T13:05:43;13.02;;;2.80;;
80987;SDS011;70452;39.386;-3.210;2023-09-08T13:08:09;15.43;;;3.97;;
80987;SDS011;70452;39.386;-3.210;2023-09-08T13:10:36;19.83;;;3.90;;
80987;SDS011;70452;39.386;-3.210;2023-09-08T13:13:01;15.82;;;3.50;;
80987;SDS011;70452;39.386;-3.210;2023-09-08T13:15:27;10.95;;;2.75;;
80987;SDS011;70452;39.386;-3.210;2023-09-08T13:17:53;12.35;;;2.45;;
80987;SDS011;70452;39.386;-3.210;2023-09-08T13:20:18;13.48;;;2.30;;
80987;SDS011;70452;39.386;-3.210;2023-09-08T13:22:44;11.23;;;2.45;;
80987;SDS011;70452;39.386;-3.210;2023-09-08T13:25:10;18.55;;;2.72;;
80987;SDS011;70452;39.386;-3.210;2023-09-08T13:27:35;12.23;;;3.10;;
80987;SDS011;70452;39.386;-3.210;2023-09-08T13:30:11;11.98;;;4.35;;
80987;SDS011;70452;39.386;-3.210;2023-09-08T13:32:38;11.10;;;2.03;;
80987;SDS011;70452;39.386;-3.210;2023-09-08T13:35:04;11.52;;;3.17;;
80987;SDS011;70452;39.386;-3.210;2023-09-08T13:37:31;12.77;;;2.40;;
80987;SDS011;70452;39.386;-3.210;2023-09-08T13:39:56;14.40;;;2.28;;
80987;SDS011;70452;39.386;-3.210;2023-09-08T13:42:22;15.65;;;3.17;;
80987;SDS011;70452;39.386;-3.210;2023-09-08T13:44:48;12.88;;;3.10;;
80987;SDS011;70452;39.386;-3.210;2023-09-08T13:47:13;13.93;;;3.45;;
80987;SDS011;70452;39.386;-3.210;2023-09-08T13:49:39;15.38;;;2.95;;
80987;SDS011;70452;39.386;-3.210;2023-09-08T13:52:04;9.07;;;3.38;;
80987;SDS011;70452;39.386;-3.210;2023-09-08T13:54:31;10.75;;;3.08;;
80987;SDS011;70452;39.386;-3.210;2023-09-08T13:56:58;12.13;;;2.55;;
80987;SDS011;70452;39.386;-3.210;2023-09-08T13:59:25;14.75;;;4.10;;
80987;SDS011;70452;39.386;-3.210;2023-09-08T14:01:51;10.80;;;2.55;;
80987;SDS011;70452;39.386;-3.210;2023-09-08T14:04:19;22.13;;;4.70;;
80987;SDS011;70452;39.386;-3.210;2023-09-08T14:06:44;15.10;;;4.22;;
80987;SDS011;70452;39.386;-3.210;2023-09-08T14:09:10;17.27;;;3.38;;
80987;SDS011;70452;39.386;-3.210;2023-09-08T14:11:35;11.70;;;3.22;;
80987;SDS011;70452;39.386;-3.210;2023-09-08T14:14:01;10.40;;;2.35;;
80987;SDS011;70452;39.386;-3.210;2023-09-08T14:16:26;11.43;;;2.45;;
80987;SDS011;70452;39.386;-3.210;2023-09-08T14:18:52;14.57;;;2.35;;
80987;SDS011;70452;39.386;-3.210;2023-09-08T14:21:17;12.02;;;2.38;;
80987;SDS011;70452;39.386;-3.210;2023-09-08T14:23:43;10.45;;;2.53;;
80987;SDS011;70452;39.386;-3.210;2023-09-08T14:26:08;14.95;;;3.55;;
80987;SDS011;70452;39.386;-3.210;2023-09-08T14:28:34;11.32;;;2.70;;
80987;SDS011;70452;39.386;-3.210;2023-09-08T14:31:00;13.30;;;3.63;;
80987;SDS011;70452;39.386;-3.210;2023-09-08T14:33:27;13.38;;;2.35;;